createdAt,value
2022-09-02T00:02:09.441Z,100356.38
2022-09-02T00:05:11.159Z,100343.81
2022-09-02T00:08:12.828Z,100349.88
2022-09-02T00:11:18.426Z,100353.53
2022-09-02T00:14:28.736Z,100355.81
2022-09-02T00:17:30.262Z,100348.56
2022-09-02T00:20:31.775Z,100344.97
2022-09-02T00:23:33.566Z,100346.19
2022-09-02T00:26:35.110Z,100352.91
2022-09-02T00:29:36.655Z,100345.75
2022-09-02T00:32:38.638Z,100356.28
2022-09-02T00:35:41.122Z,100343.00
2022-09-02T00:38:42.777Z,100343.34
2022-09-02T00:41:44.850Z,100332.41
2022-09-02T00:44:46.993Z,100342.19
2022-09-02T00:47:51.734Z,100331.88
2022-09-02T00:50:53.486Z,100338.09
2022-09-02T00:53:55.780Z,100324.53
2022-09-02T00:56:57.935Z,100329.84
2022-09-02T01:00:18.466Z,100331.69
2022-09-02T01:03:21.809Z,100328.31
2022-09-02T01:06:27.502Z,100334.66
2022-09-02T01:09:31.921Z,100328.19
2022-09-02T01:12:34.039Z,100324.72
2022-09-02T01:15:39.132Z,100328.25
2022-09-02T01:18:45.398Z,100326.56
2022-09-02T01:21:55.171Z,100331.63
2022-09-02T01:25:02.523Z,100321.28
2022-09-02T01:28:10.122Z,100316.06
2022-09-02T01:31:12.147Z,100320.72
2022-09-02T01:34:13.760Z,100318.78
2022-09-02T01:37:15.544Z,100314.28
2022-09-02T01:40:18.306Z,100315.81
2022-09-02T01:43:23.903Z,100325.72
2022-09-02T01:46:25.392Z,100313.69
2022-09-02T01:49:27.041Z,100316.50
2022-09-02T01:52:29.737Z,100315.28
2022-09-02T01:55:33.083Z,100313.41
2022-09-02T01:58:34.659Z,100317.97
2022-09-02T02:01:36.242Z,100312.44
2022-09-02T02:04:37.878Z,100310.59
2022-09-02T02:07:40.925Z,100308.34
2022-09-02T02:10:42.987Z,100311.22
2022-09-02T02:13:44.573Z,100304.28
2022-09-02T02:16:47.450Z,100312.69
2022-09-02T02:19:48.920Z,100309.41
2022-09-02T02:22:50.454Z,100315.63
2022-09-02T02:25:52.026Z,100320.63
2022-09-02T02:28:53.796Z,100314.81
2022-09-02T02:31:55.360Z,100312.88
2022-09-02T02:34:57.040Z,100321.31
2022-09-02T02:37:58.564Z,100318.53
2022-09-02T02:41:06.458Z,100324.19
2022-09-02T02:44:09.085Z,100314.97
2022-09-02T02:47:10.685Z,100311.00
2022-09-02T02:50:13.729Z,100312.94
2022-09-02T02:53:17.426Z,100305.91
2022-09-02T02:56:19.282Z,100309.13
2022-09-02T02:59:20.843Z,100312.47
2022-09-02T03:02:23.024Z,100301.72
2022-09-02T03:05:26.013Z,100306.25
2022-09-02T03:08:27.789Z,100300.00
2022-09-02T03:11:29.344Z,100295.84
2022-09-02T03:14:31.203Z,100286.94
2022-09-02T03:17:32.777Z,100295.81
2022-09-02T03:20:34.343Z,100293.47
2022-09-02T03:23:36.298Z,100289.41
2022-09-02T03:26:40.656Z,100291.25
2022-09-02T03:29:42.232Z,100290.13
2022-09-02T03:32:44.187Z,100296.94
2022-09-02T03:35:45.723Z,100285.94
2022-09-02T03:38:47.679Z,100285.09
2022-09-02T03:41:50.341Z,100286.19
2022-09-02T03:44:51.845Z,100295.91
2022-09-02T03:47:54.269Z,100283.44
2022-09-02T03:50:56.002Z,100287.25
2022-09-02T03:53:57.563Z,100281.81
2022-09-02T03:56:59.059Z,100280.28
2022-09-02T04:00:02.050Z,100281.50
2022-09-02T04:03:04.119Z,100283.56
2022-09-02T04:06:06.394Z,100288.38
2022-09-02T04:09:07.989Z,100288.34
2022-09-02T04:12:09.492Z,100277.44
2022-09-02T04:15:12.318Z,100273.03
2022-09-02T04:19:10.271Z,100292.25
2022-09-02T04:22:11.824Z,100276.91
2022-09-02T04:25:13.934Z,100277.94
2022-09-02T04:28:15.422Z,100281.00
2022-09-02T04:31:19.305Z,100286.41
2022-09-02T04:34:20.885Z,100281.13
2022-09-02T04:37:22.535Z,100276.31
2022-09-02T04:40:24.425Z,100278.16
2022-09-02T04:43:26.098Z,100281.53
2022-09-02T04:46:34.190Z,100281.94
2022-09-02T04:49:36.319Z,100288.53
2022-09-02T04:52:38.043Z,100289.88
2022-09-02T04:55:41.117Z,100287.84
2022-09-02T04:58:44.420Z,100291.53
2022-09-02T05:01:46.017Z,100290.50
2022-09-02T05:04:47.569Z,100293.16
2022-09-02T05:07:49.288Z,100303.56
2022-09-02T05:10:54.066Z,100297.44
2022-09-02T05:13:58.077Z,100298.28
2022-09-02T05:17:05.207Z,100302.03
2022-09-02T05:20:09.991Z,100291.69
2022-09-02T05:23:13.129Z,100295.28
2022-09-02T05:26:15.144Z,100307.56
2022-09-02T05:29:20.508Z,100301.94
2022-09-02T05:32:23.186Z,100297.25
2022-09-02T05:35:24.781Z,100312.34
2022-09-02T05:38:26.303Z,100300.63
2022-09-02T05:41:28.650Z,100306.50
2022-09-02T05:44:31.511Z,100302.66
2022-09-02T05:47:36.080Z,100307.00
2022-09-02T05:50:37.595Z,100303.63
2022-09-02T05:53:39.036Z,100305.25
2022-09-02T05:56:44.965Z,100302.13
2022-09-02T05:59:48.902Z,100297.31
2022-09-02T06:02:51.193Z,100299.94
2022-09-02T06:06:04.422Z,100304.56
2022-09-02T06:09:11.409Z,100303.47
2022-09-02T06:12:14.797Z,100301.50
2022-09-02T06:15:17.788Z,100308.63
2022-09-02T06:18:19.274Z,100310.69
2022-09-02T06:21:20.988Z,100308.25
2022-09-02T06:24:23.364Z,100308.28
2022-09-02T06:27:24.900Z,100313.78
2022-09-02T06:30:26.701Z,100308.63
2022-09-02T06:33:28.235Z,100310.41
2022-09-02T06:36:30.733Z,100307.00
2022-09-02T06:39:32.284Z,100310.06
2022-09-02T06:42:34.051Z,100302.81
2022-09-02T06:45:40.411Z,100310.41
2022-09-02T06:48:42.419Z,100308.53
2022-09-02T06:51:47.015Z,100310.72
2022-09-02T06:54:50.009Z,100304.97
2022-09-02T06:57:51.810Z,100310.63
2022-09-02T07:00:53.283Z,100304.53
2022-09-02T07:04:15.303Z,100305.31
2022-09-02T07:07:16.819Z,100305.41
2022-09-02T07:10:18.632Z,100296.13
2022-09-02T07:13:20.276Z,100293.03
2022-09-02T07:16:26.719Z,100301.72
2022-09-02T07:19:28.801Z,100305.91
2022-09-02T07:22:30.293Z,100302.00
2022-09-02T07:25:32.083Z,100307.66
2022-09-02T07:28:34.487Z,100289.44
2022-09-02T07:31:37.627Z,100306.09
2022-09-02T07:34:39.107Z,100291.72
2022-09-02T07:37:41.106Z,100304.00
2022-09-02T07:40:43.230Z,100288.47
2022-09-02T07:43:48.357Z,100291.03
2022-09-02T07:46:52.853Z,100288.00
2022-09-02T07:53:16.679Z,100280.06
2022-09-02T07:56:19.640Z,100281.56
2022-09-02T07:59:21.896Z,100287.34
2022-09-02T08:02:23.563Z,100285.19
2022-09-02T08:05:25.514Z,100270.53
2022-09-02T08:08:27.555Z,100274.25
2022-09-02T08:11:29.195Z,100269.38
2022-09-02T08:14:30.826Z,100272.03
2022-09-02T08:17:32.585Z,100268.75
2022-09-02T08:20:34.941Z,100276.88
2022-09-02T08:23:37.679Z,100275.72
2022-09-02T08:26:39.644Z,100277.59
2022-09-02T08:29:41.158Z,100286.91
2022-09-02T08:32:42.571Z,100281.03
2022-09-02T08:35:44.087Z,100282.69
2022-09-02T08:38:45.546Z,100276.50
2022-09-02T08:41:53.091Z,100271.31
2022-09-02T08:45:00.856Z,100270.63
2022-09-02T08:48:12.604Z,100269.59
2022-09-02T08:51:21.791Z,100271.56
2022-09-02T08:54:36.337Z,100271.09
2022-09-02T08:57:44.316Z,100276.91
2022-09-02T09:00:57.097Z,100276.63
2022-09-02T09:04:33.281Z,100268.34
2022-09-02T09:07:40.739Z,100275.78
2022-09-02T09:11:11.347Z,100270.84
2022-09-02T09:14:27.606Z,100270.53
2022-09-02T09:17:37.066Z,100268.41
2022-09-02T09:20:41.753Z,100250.44
2022-09-02T09:23:44.995Z,100257.47
2022-09-02T09:26:47.349Z,100250.63
2022-09-02T09:29:50.492Z,100263.53
2022-09-02T09:32:57.397Z,100255.56
2022-09-02T09:35:58.912Z,100247.19
2022-09-02T09:39:16.404Z,100246.81
2022-09-02T09:42:38.783Z,100237.94
2022-09-02T09:45:46.043Z,100236.97
2022-09-02T09:48:51.530Z,100246.63
2022-09-02T09:51:56.348Z,100252.28
2022-09-02T09:55:22.734Z,100238.69
2022-09-02T09:58:34.280Z,100232.38
2022-09-02T10:01:36.875Z,100237.06
2022-09-02T10:04:45.672Z,100238.00
2022-09-02T10:07:54.963Z,100232.00
2022-09-02T10:11:02.018Z,100226.09
2022-09-02T10:14:10.048Z,100226.28
2022-09-02T10:17:32.437Z,100219.47
2022-09-02T10:21:11.407Z,100231.25
2022-09-02T10:24:27.110Z,100223.72
2022-09-02T10:27:40.823Z,100230.44
2022-09-02T10:31:16.775Z,100222.81
2022-09-02T10:34:21.153Z,100208.91
2022-09-02T10:37:32.215Z,100223.91
2022-09-02T10:40:49.946Z,100214.16
2022-09-02T10:44:07.714Z,100213.50
2022-09-02T10:47:31.960Z,100210.47
2022-09-02T10:50:37.602Z,100210.56
2022-09-02T10:53:53.971Z,100202.97
2022-09-02T10:57:04.793Z,100191.28
2022-09-02T11:00:20.234Z,100200.88
2022-09-02T11:03:30.182Z,100184.53
2022-09-02T11:06:52.042Z,100155.81
2022-09-02T11:10:17.868Z,100169.97
2022-09-02T11:13:31.877Z,100189.91
2022-09-02T11:16:45.304Z,100181.59
2022-09-02T11:19:50.874Z,100169.03
2022-09-02T11:23:01.259Z,100162.56
2022-09-02T11:26:19.874Z,100164.97
2022-09-02T11:29:37.004Z,100160.53
2022-09-02T11:32:50.364Z,100154.78
2022-09-02T11:35:51.935Z,100146.72
2022-09-02T11:39:25.814Z,100148.22
2022-09-02T11:43:34.717Z,100150.72
2022-09-02T11:46:46.278Z,100149.50
2022-09-02T11:49:50.543Z,100153.28
2022-09-02T11:53:04.240Z,100151.06
2022-09-02T11:56:37.518Z,100135.63
2022-09-02T11:59:50.826Z,100131.25
2022-09-02T12:03:40.886Z,100134.94
2022-09-02T12:07:07.294Z,100139.97
2022-09-02T12:10:10.757Z,100134.63
2022-09-02T12:13:41.991Z,100124.03
2022-09-02T12:17:03.602Z,100126.03
2022-09-02T12:20:29.424Z,100134.59
2022-09-02T12:23:49.698Z,100126.56
2022-09-02T12:26:51.129Z,100120.44
2022-09-02T12:29:55.584Z,100122.63
2022-09-02T12:33:09.795Z,100117.50
2022-09-02T12:36:52.020Z,100114.81
2022-09-02T12:39:56.943Z,100098.91
2022-09-02T12:43:03.524Z,100103.75
2022-09-02T12:46:22.842Z,100087.31
2022-09-02T12:49:36.135Z,100084.38
2022-09-02T12:52:49.530Z,100081.44
2022-09-02T12:56:24.037Z,100076.06
2022-09-02T12:59:40.431Z,100074.38
2022-09-02T13:03:14.797Z,100069.16
2022-09-02T13:06:42.861Z,100063.16
2022-09-02T13:09:51.975Z,100055.59
2022-09-02T13:13:10.741Z,100068.88
2022-09-02T13:16:18.522Z,100068.31
2022-09-02T13:20:02.212Z,100057.59
2022-09-02T13:23:37.632Z,100046.16
2022-09-02T13:30:06.821Z,100039.00
2022-09-02T13:33:11.368Z,100025.38
2022-09-02T13:36:26.308Z,100028.75
2022-09-02T13:39:28.427Z,100029.56
2022-09-02T13:42:32.829Z,100027.00
2022-09-02T13:45:36.481Z,100022.75
2022-09-02T13:48:40.152Z,100027.56
2022-09-02T13:51:45.282Z,100019.91
2022-09-02T13:54:52.634Z,100025.69
2022-09-02T13:57:58.060Z,100007.69
2022-09-02T14:01:19.925Z,100004.34
2022-09-02T14:04:23.563Z,100001.75
2022-09-02T14:07:32.251Z,100003.53
2022-09-02T14:10:37.152Z,99998.06
2022-09-02T14:13:46.223Z,99990.31
2022-09-02T14:16:49.506Z,99983.66
2022-09-02T14:19:52.478Z,99984.00
2022-09-02T14:22:59.687Z,99981.50
2022-09-02T14:26:02.806Z,99967.16
2022-09-02T14:29:06.411Z,99949.84
2022-09-02T14:32:14.453Z,99960.31
2022-09-02T14:35:21.250Z,99956.03
2022-09-02T14:38:24.253Z,99949.63
2022-09-02T14:41:27.636Z,99954.66
2022-09-02T14:44:36.297Z,99943.28
2022-09-02T14:47:40.914Z,99942.41
2022-09-02T14:50:43.167Z,99951.41
2022-09-02T14:53:44.861Z,99941.81
2022-09-02T14:56:50.275Z,99938.00
2022-09-02T14:59:52.465Z,99933.56
2022-09-02T15:02:57.193Z,99924.81
2022-09-02T15:05:58.922Z,99927.59
2022-09-02T15:09:00.627Z,99922.97
2022-09-02T15:12:03.224Z,99920.81
2022-09-02T15:15:06.175Z,99918.81
2022-09-02T15:18:09.375Z,99925.28
2022-09-02T15:21:11.450Z,99917.72
2022-09-02T15:24:13.286Z,99918.25
2022-09-02T15:27:15.557Z,99915.94
2022-09-02T15:30:20.652Z,99915.44
2022-09-02T15:33:23.833Z,99910.50
2022-09-02T15:36:27.555Z,99919.69
2022-09-02T15:39:30.408Z,99916.66
2022-09-02T15:42:34.324Z,99918.66
2022-09-02T15:45:37.812Z,99905.16
2022-09-02T15:48:40.866Z,99913.72
2022-09-02T15:51:47.197Z,99908.59
2022-09-02T15:54:48.846Z,99908.50
2022-09-02T15:57:50.577Z,99901.16
2022-09-02T16:00:52.227Z,99896.94
2022-09-02T16:03:58.171Z,99910.56
2022-09-02T16:07:01.084Z,99899.28
2022-09-02T16:10:03.708Z,99906.19
2022-09-02T16:13:05.654Z,99898.59
2022-09-02T16:16:09.480Z,99902.50
2022-09-02T16:19:13.487Z,99899.97
2022-09-02T16:22:15.232Z,99901.88
2022-09-02T16:25:16.990Z,99908.00
2022-09-02T16:28:18.673Z,99895.66
2022-09-02T16:31:21.918Z,99900.22
2022-09-02T16:34:25.000Z,99890.84
2022-09-02T16:37:26.812Z,99898.63
2022-09-02T16:40:28.420Z,99900.03
2022-09-02T16:43:31.447Z,99893.97
2022-09-02T16:46:34.607Z,99893.19
2022-09-02T16:49:37.674Z,99896.03
2022-09-02T16:52:41.002Z,99906.72
2022-09-02T16:55:43.758Z,99898.34
2022-09-02T16:58:45.409Z,99901.31
2022-09-02T17:01:47.266Z,99905.31
2022-09-02T17:04:50.359Z,99894.97
2022-09-02T17:07:55.447Z,99895.91
2022-09-02T17:11:11.851Z,99899.63
2022-09-02T17:14:16.326Z,99909.56
2022-09-02T17:17:18.559Z,99900.41
2022-09-02T17:20:22.690Z,99898.19
2022-09-02T17:23:24.444Z,99892.81
2022-09-02T17:26:28.586Z,99903.03
2022-09-02T17:32:56.396Z,99898.50
2022-09-02T17:36:01.496Z,99901.09
2022-09-02T17:39:05.759Z,99898.31
2022-09-02T17:42:07.691Z,99892.44
2022-09-02T17:45:10.044Z,99894.56
2022-09-02T17:48:34.697Z,99905.38
2022-09-02T17:51:34.870Z,99896.78
2022-09-02T17:54:37.789Z,99892.69
2022-09-02T17:57:51.758Z,99873.66
2022-09-02T18:00:58.782Z,99875.34
2022-09-02T18:04:20.213Z,99886.00
2022-09-02T18:07:30.201Z,99877.13
2022-09-02T18:10:35.653Z,99881.28
2022-09-02T18:13:48.018Z,99891.22
2022-09-02T18:17:05.430Z,99887.84
2022-09-02T18:20:12.151Z,99886.06
2022-09-02T18:23:29.179Z,99890.72
2022-09-02T18:26:48.930Z,99884.06
2022-09-02T18:30:03.298Z,99886.59
2022-09-02T18:33:20.509Z,99882.69
2022-09-02T18:36:34.284Z,99892.50
2022-09-02T18:39:57.309Z,99885.41
2022-09-02T18:43:13.384Z,99892.06
2022-09-02T18:46:17.897Z,99883.91
2022-09-02T18:49:22.519Z,99887.03
2022-09-02T18:52:29.540Z,99884.28
2022-09-02T18:55:36.696Z,99881.03
2022-09-02T18:58:42.222Z,99887.66
2022-09-02T19:01:47.989Z,99893.91
2022-09-02T19:04:50.059Z,99888.50
2022-09-02T19:08:18.829Z,99890.16
2022-09-02T19:11:23.231Z,99879.59
2022-09-02T19:14:26.578Z,99887.34
2022-09-02T19:17:28.392Z,99892.03
2022-09-02T19:20:30.256Z,99893.31
2022-09-02T19:23:32.696Z,99893.66
2022-09-02T19:26:36.614Z,99898.44
2022-09-02T19:29:43.027Z,99899.09
2022-09-02T19:32:47.812Z,99893.94
2022-09-02T19:35:50.854Z,99895.94
2022-09-02T19:38:52.580Z,99895.47
2022-09-02T19:41:55.656Z,99904.75
2022-09-02T19:44:57.355Z,99904.75
2022-09-02T19:48:08.452Z,99896.03
2022-09-02T19:51:13.994Z,99900.91
2022-09-02T19:54:18.323Z,99896.03
2022-09-02T19:57:21.330Z,99897.09
2022-09-02T20:00:23.129Z,99903.72
2022-09-02T20:03:25.202Z,99906.88
2022-09-02T20:06:27.247Z,99903.91
2022-09-02T20:09:29.304Z,99903.59
2022-09-02T20:12:33.414Z,99907.41
2022-09-02T20:15:37.311Z,99901.38
2022-09-02T20:18:45.363Z,99899.94
2022-09-02T20:21:47.238Z,99900.97
2022-09-02T20:24:48.869Z,99900.75
2022-09-02T20:28:06.069Z,99893.25
2022-09-02T20:31:27.296Z,99899.09
2022-09-02T20:34:39.279Z,99893.53
2022-09-02T20:37:51.835Z,99887.69
2022-09-02T20:41:00.131Z,99889.47
2022-09-02T20:44:29.703Z,99881.88
2022-09-02T20:47:46.779Z,99885.16
2022-09-02T20:50:53.177Z,99889.41
2022-09-02T20:54:11.256Z,99885.38
2022-09-02T20:57:29.645Z,99889.47
2022-09-02T21:00:32.936Z,99885.25
2022-09-02T21:03:45.190Z,99888.00
2022-09-02T21:06:53.943Z,99882.06
2022-09-02T21:10:03.395Z,99880.25
2022-09-02T21:13:10.218Z,99883.44
2022-09-02T21:16:19.681Z,99874.78
2022-09-02T21:19:29.380Z,99872.78
2022-09-02T21:22:37.690Z,99878.34
2022-09-02T21:25:48.111Z,99874.88
2022-09-02T21:28:51.350Z,99865.72
2022-09-02T21:32:00.406Z,99868.31
2022-09-02T21:35:05.669Z,99869.88
2022-09-02T21:38:11.192Z,99864.31
2022-09-02T21:41:29.389Z,99869.88
2022-09-02T21:44:43.375Z,99873.38
2022-09-02T21:47:53.915Z,99873.38
2022-09-02T21:50:58.896Z,99878.50
2022-09-02T21:54:13.726Z,99871.88
2022-09-02T21:57:40.067Z,99876.09
2022-09-02T22:00:47.135Z,99868.22
2022-09-02T22:03:55.344Z,99868.03
2022-09-02T22:07:18.981Z,99869.81
2022-09-02T22:10:29.669Z,99868.00
2022-09-02T22:13:32.695Z,99863.06
2022-09-02T22:16:41.659Z,99862.88
2022-09-02T22:19:45.052Z,99864.75
2022-09-02T22:22:53.325Z,99854.03
2022-09-02T22:25:55.595Z,99869.59
2022-09-02T22:29:03.825Z,99858.72
2022-09-02T22:32:09.642Z,99849.38
2022-09-02T22:35:22.891Z,99847.03
2022-09-02T22:38:34.706Z,99853.94
2022-09-02T22:41:50.892Z,99846.91
2022-09-02T22:45:18.077Z,99846.16
2022-09-02T22:48:42.922Z,99846.91
2022-09-02T22:52:08.941Z,99840.75
2022-09-02T22:55:10.940Z,99845.50
2022-09-02T22:58:30.835Z,99844.25
2022-09-02T23:01:43.579Z,99845.28
2022-09-02T23:05:02.727Z,99847.75
2022-09-02T23:08:07.873Z,99846.41
2022-09-02T23:11:13.229Z,99839.81
2022-09-02T23:14:26.476Z,99832.59
2022-09-02T23:17:36.784Z,99844.31
2022-09-02T23:20:48.146Z,99847.03
2022-09-02T23:24:01.837Z,99854.56
2022-09-02T23:27:09.787Z,99846.97
2022-09-02T23:30:13.698Z,99850.78
2022-09-02T23:33:28.046Z,99846.28
2022-09-02T23:36:41.338Z,99846.41
2022-09-02T23:39:57.066Z,99841.22
2022-09-02T23:42:59.349Z,99840.81
2022-09-02T23:46:09.063Z,99845.59
2022-09-02T23:49:18.966Z,99837.44
2022-09-02T23:52:26.318Z,99839.56
2022-09-02T23:55:43.726Z,99833.00
2022-09-02T23:59:03.463Z,99834.22
